GWT weather

Westerland Sylt Airport
Westerland, Schleswig-Holstein, Germany

Public forecast

Using degrees Celsius for public forecast. Weather courtesy of forecast.io.

METAR (pilot weather report)

Retrieved 2019/08/24 04:20 UTC (51 seconds ago):

EDXW 240420Z 11006KT 9000 NSC 14/14 Q1025

TAF (pilot weather forecast)

Closest forecast is Skrydstrup Air Base, 36.8 nm (68.2 km) ENE. Retrieved 2019/08/24 03:30 UTC (51 minutes ago):

TAF EKSP 240201Z 2403/2503 VRB03KT 0100 FG VV001 TEMPO 2403/2407 1800 BR BKN003 BECMG 2407/2409 11008KT 9999 NSW FEW020